Time;durP1;ratioP1;P1;durP2;ratioP2;P2;SDS_P1;SDS_P2;PMS_P1;PMS_P2;Temp;Humidity;BMP_temperature;BMP_pressure;BME280_temperature;BME280_humidity;BME280_pressure;Samples;Min_cycle;Max_cycle;Signal;HPM_P1;HPM_P2
2024/01/15 00:00:56;;;;;;;6.37;0.83;;;1.50;99.90;;;;;;4970740;28;20046;-80
2024/01/15 00:03:22;;;;;;;4.13;0.67;;;1.40;99.90;;;;;;4952329;28;20113;-78
2024/01/15 00:05:49;;;;;;;5.77;0.70;;;1.40;99.90;;;;;;4939036;28;20433;-77
2024/01/15 00:08:16;;;;;;;8.40;1.00;;;1.40;99.90;;;;;;5003592;28;20046;-77
2024/01/15 00:10:43;;;;;;;7.67;1.33;;;1.30;99.90;;;;;;4984420;28;20023;-79
2024/01/15 00:13:09;;;;;;;4.23;0.50;;;1.30;99.90;;;;;;4955562;28;20038;-79
2024/01/15 00:15:35;;;;;;;5.17;0.60;;;1.30;99.90;;;;;;4989468;28;20436;-78
2024/01/15 00:18:02;;;;;;;3.43;0.63;;;1.30;99.90;;;;;;4971748;28;20034;-80
2024/01/15 00:20:28;;;;;;;4.50;0.57;;;1.20;99.90;;;;;;4971660;28;20030;-78
2024/01/15 00:22:55;;;;;;;6.80;0.80;;;1.20;99.90;;;;;;4972665;28;20035;-80
2024/01/15 00:25:21;;;;;;;7.07;0.70;;;1.20;99.90;;;;;;4954986;28;20057;-79
2024/01/15 00:27:48;;;;;;;9.87;0.97;;;1.10;99.90;;;;;;4987987;28;20038;-80
2024/01/15 00:30:16;;;;;;;6.40;0.70;;;1.10;99.90;;;;;;5006180;28;20038;-79
2024/01/15 00:32:42;;;;;;;4.07;0.90;;;1.10;99.90;;;;;;5003599;28;20038;-80
2024/01/15 00:35:09;;;;;;;4.93;0.67;;;1.00;99.90;;;;;;4970892;28;20394;-78
2024/01/15 00:37:35;;;;;;;3.50;0.60;;;1.00;99.90;;;;;;5006636;28;20045;-80
2024/01/15 00:40:01;;;;;;;5.97;0.73;;;1.00;99.90;;;;;;4989336;28;20677;-77
2024/01/15 00:42:28;;;;;;;6.47;0.60;;;0.90;99.90;;;;;;4955124;28;20042;-79
2024/01/15 00:44:54;;;;;;;7.07;0.50;;;0.90;99.90;;;;;;4972937;28;20034;-80
2024/01/15 00:47:21;;;;;;;8.43;0.60;;;0.90;99.90;;;;;;4971826;28;20176;-78
2024/01/15 00:49:47;;;;;;;7.83;0.90;;;0.90;99.90;;;;;;5004885;28;20284;-77
2024/01/15 00:52:15;;;;;;;5.70;0.63;;;0.90;99.90;;;;;;4971703;28;20049;-77
2024/01/15 00:54:41;;;;;;;6.00;0.60;;;0.80;99.90;;;;;;4972729;28;20038;-79
2024/01/15 00:57:07;;;;;;;4.10;0.60;;;0.80;99.90;;;;;;4972415;28;20030;-80
2024/01/15 00:59:34;;;;;;;4.57;0.50;;;0.80;99.90;;;;;;4955948;28;20041;-79
2024/01/15 01:02:00;;;;;;;7.00;0.40;;;0.80;99.90;;;;;;4972972;28;20465;-79
2024/01/15 01:04:26;;;;;;;7.43;1.00;;;0.80;99.90;;;;;;4972616;28;20041;-80
2024/01/15 01:06:53;;;;;;;5.90;0.50;;;0.70;99.90;;;;;;4973892;28;20050;-81
2024/01/15 01:09:19;;;;;;;5.20;0.60;;;0.70;99.90;;;;;;4975117;28;20042;-79
2024/01/15 01:11:46;;;;;;;6.43;0.60;;;0.70;99.90;;;;;;4976505;28;20029;-77
2024/01/15 01:14:13;;;;;;;8.80;0.60;;;0.70;99.90;;;;;;4976239;28;20042;-77
2024/01/15 01:16:39;;;;;;;8.33;0.70;;;0.70;99.90;;;;;;4974349;28;20053;-78
2024/01/15 01:19:07;;;;;;;3.17;0.70;;;0.70;99.90;;;;;;4943268;28;20041;-79
2024/01/15 01:21:34;;;;;;;4.90;0.50;;;0.60;99.90;;;;;;4990674;28;20042;-77
2024/01/15 01:24:00;;;;;;;6.57;0.60;;;0.60;99.90;;;;;;4955381;28;20061;-77
2024/01/15 01:26:26;;;;;;;7.57;0.47;;;0.60;99.90;;;;;;4959702;28;20030;-79
2024/01/15 01:28:53;;;;;;;7.60;0.50;;;0.60;99.90;;;;;;4977856;28;20038;-79
2024/01/15 01:31:19;;;;;;;9.03;0.60;;;0.50;99.90;;;;;;4979082;28;20500;-79
2024/01/15 01:33:45;;;;;;;5.60;0.40;;;0.50;99.90;;;;;;4979694;28;20041;-79
2024/01/15 01:36:12;;;;;;;4.60;0.67;;;0.50;99.90;;;;;;4991066;28;20031;-80
2024/01/15 01:38:40;;;;;;;7.00;0.80;;;0.50;99.90;;;;;;4977497;28;20536;-79
2024/01/15 01:41:07;;;;;;;5.27;0.47;;;0.50;99.90;;;;;;4963798;28;20423;-79
2024/01/15 01:43:33;;;;;;;4.00;0.50;;;0.50;99.90;;;;;;4977909;28;20034;-81
2024/01/15 01:46:01;;;;;;;6.03;0.70;;;0.40;99.90;;;;;;4977979;28;20041;-80
2024/01/15 01:48:28;;;;;;;6.37;0.47;;;0.40;99.90;;;;;;4959205;28;20030;-77
2024/01/15 01:50:59;;;;;;;6.70;0.60;;;0.40;99.90;;;;;;4976198;28;20037;-80
2024/01/15 01:53:26;;;;;;;9.03;0.50;;;0.40;99.90;;;;;;4976361;28;20027;-80
2024/01/15 01:55:54;;;;;;;4.97;0.80;;;0.40;99.90;;;;;;4976836;28;20034;-79
2024/01/15 01:58:21;;;;;;;8.03;0.50;;;0.40;99.90;;;;;;4991665;28;20101;-78
2024/01/15 02:00:49;;;;;;;5.07;0.50;;;0.40;99.90;;;;;;4960004;28;20077;-78
2024/01/15 02:03:15;;;;;;;9.50;0.97;;;0.40;99.90;;;;;;4992183;28;20026;-78
2024/01/15 02:05:44;;;;;;;6.10;0.63;;;0.40;99.90;;;;;;4974989;28;20050;-76
2024/01/15 02:08:10;;;;;;;8.47;1.13;;;0.40;99.90;;;;;;5008445;28;20276;-80
2024/01/15 02:10:37;;;;;;;11.97;1.00;;;0.40;99.90;;;;;;4977466;28;20030;-79
2024/01/15 02:13:03;;;;;;;10.00;1.00;;;0.40;99.90;;;;;;4959133;28;20038;-77
2024/01/15 02:15:30;;;;;;;5.63;0.40;;;0.40;99.90;;;;;;4974674;28;20022;-80
2024/01/15 02:17:57;;;;;;;7.63;0.70;;;0.40;99.90;;;;;;4975038;28;20661;-80
2024/01/15 02:20:25;;;;;;;7.50;0.53;;;0.40;99.90;;;;;;4976510;28;20034;-80
2024/01/15 02:22:51;;;;;;;5.63;0.60;;;0.40;99.90;;;;;;4992221;28;20041;-79
2024/01/15 02:25:19;;;;;;;5.47;0.37;;;0.40;99.90;;;;;;4974424;28;20571;-79
2024/01/15 02:27:47;;;;;;;11.20;0.70;;;0.40;99.90;;;;;;4992182;28;20041;-76
2024/01/15 02:30:13;;;;;;;6.93;0.50;;;0.40;99.90;;;;;;4972023;28;20057;-78
2024/01/15 02:32:40;;;;;;;7.27;0.60;;;0.30;99.90;;;;;;4959444;28;20030;-79
2024/01/15 02:35:06;;;;;;;6.10;0.60;;;0.40;99.90;;;;;;4974459;28;20484;-78
2024/01/15 02:37:33;;;;;;;7.97;0.60;;;0.40;99.90;;;;;;4975411;28;20478;-77
2024/01/15 02:39:59;;;;;;;4.20;0.67;;;0.40;99.90;;;;;;5008828;28;20473;-79
2024/01/15 02:42:26;;;;;;;4.93;0.50;;;0.30;99.90;;;;;;4992598;28;20026;-80
2024/01/15 02:44:53;;;;;;;6.23;0.40;;;0.30;99.90;;;;;;4976539;28;20037;-79
2024/01/15 02:47:19;;;;;;;10.60;0.53;;;0.40;99.90;;;;;;4975300;28;20039;-77
2024/01/15 02:49:45;;;;;;;14.93;0.90;;;0.50;99.90;;;;;;4991073;28;20466;-79
2024/01/15 02:52:12;;;;;;;16.13;1.50;;;0.60;99.90;;;;;;4976933;28;20057;-80
2024/01/15 02:54:38;;;;;;;11.03;1.00;;;0.70;99.90;;;;;;4958701;28;20038;-79
2024/01/15 02:57:04;;;;;;;9.30;0.80;;;0.80;99.90;;;;;;5006781;28;20030;-80
2024/01/15 02:59:31;;;;;;;7.43;0.63;;;0.80;99.90;;;;;;4988903;28;20026;-78
2024/01/15 03:01:57;;;;;;;6.17;1.07;;;0.90;99.90;;;;;;4958306;28;20034;-80
2024/01/15 03:04:24;;;;;;;11.07;1.33;;;0.90;99.90;;;;;;4960087;28;20026;-80
2024/01/15 03:06:50;;;;;;;10.10;0.57;;;0.90;99.90;;;;;;4957618;28;20037;-80
2024/01/15 03:09:16;;;;;;;8.27;0.63;;;0.90;99.90;;;;;;4975779;28;20058;-80
2024/01/15 03:11:43;;;;;;;10.50;0.60;;;0.90;99.90;;;;;;4969928;28;20038;-78
2024/01/15 03:14:09;;;;;;;9.37;1.17;;;0.90;99.90;;;;;;4974573;28;20073;-79
2024/01/15 03:16:36;;;;;;;2.53;0.43;;;0.80;99.90;;;;;;4958724;28;20045;-80
2024/01/15 03:19:02;;;;;;;6.67;0.43;;;0.80;99.90;;;;;;4974555;28;20038;-79
2024/01/15 03:21:28;;;;;;;5.47;0.40;;;0.80;99.90;;;;;;4973700;28;20037;-79
2024/01/15 03:23:55;;;;;;;2.43;0.40;;;0.70;99.90;;;;;;4985704;28;20174;-79
2024/01/15 03:26:21;;;;;;;8.00;0.80;;;0.70;99.90;;;;;;4973103;28;20045;-79
2024/01/15 03:28:47;;;;;;;3.83;0.97;;;0.70;99.90;;;;;;4975495;28;20042;-78
2024/01/15 03:31:14;;;;;;;3.37;1.03;;;0.70;99.90;;;;;;4990758;28;20026;-80
2024/01/15 03:33:40;;;;;;;4.83;0.50;;;0.60;99.90;;;;;;4958660;28;20062;-77
2024/01/15 03:36:07;;;;;;;5.67;0.40;;;0.60;99.90;;;;;;4975460;28;20038;-77
2024/01/15 03:38:34;;;;;;;3.33;0.40;;;0.60;99.90;;;;;;4957274;28;20045;-80
2024/01/15 03:41:00;;;;;;;2.70;0.30;;;0.60;99.90;;;;;;4958100;28;20057;-79
2024/01/15 03:43:27;;;;;;;4.20;0.60;;;0.50;99.90;;;;;;4958014;28;20037;-79
2024/01/15 03:45:54;;;;;;;3.97;0.50;;;0.50;99.90;;;;;;4969293;28;20364;-82
2024/01/15 03:48:20;;;;;;;5.27;0.37;;;0.50;99.90;;;;;;4954948;28;20409;-81
2024/01/15 03:50:47;;;;;;;2.17;0.30;;;0.50;99.90;;;;;;4975498;28;20041;-80
2024/01/15 03:53:13;;;;;;;6.47;0.70;;;0.50;99.90;;;;;;4974566;28;20341;-81
2024/01/15 03:55:39;;;;;;;7.10;0.60;;;0.50;99.90;;;;;;4975815;28;20033;-80
2024/01/15 03:58:06;;;;;;;11.10;0.70;;;0.60;99.90;;;;;;4957338;28;20041;-80
2024/01/15 04:00:32;;;;;;;6.83;0.70;;;0.60;99.90;;;;;;4955947;28;20031;-76
2024/01/15 04:02:58;;;;;;;3.60;0.60;;;0.70;99.90;;;;;;4974916;28;20041;-79
2024/01/15 04:05:25;;;;;;;9.87;0.67;;;0.80;99.90;;;;;;4975630;28;20030;-80
2024/01/15 04:07:51;;;;;;;10.50;0.60;;;0.80;99.90;;;;;;4983682;28;20039;-79
2024/01/15 04:10:18;;;;;;;10.53;0.40;;;0.90;99.90;;;;;;4957328;28;21124;-80
2024/01/15 04:12:46;;;;;;;11.53;0.77;;;1.00;99.90;;;;;;4973774;28;20022;-79
2024/01/15 04:15:12;;;;;;;3.23;0.30;;;1.00;99.90;;;;;;4973720;28;20041;-76
2024/01/15 04:17:39;;;;;;;7.83;0.43;;;1.10;99.90;;;;;;5006609;28;21001;-80
2024/01/15 04:20:06;;;;;;;5.63;0.47;;;1.00;99.90;;;;;;4974031;28;20033;-80
2024/01/15 04:22:36;;;;;;;6.80;0.47;;;1.00;99.90;;;;;;4972604;28;20034;-79
2024/01/15 04:25:03;;;;;;;6.73;0.70;;;1.00;99.90;;;;;;4967766;28;20030;-81
2024/01/15 04:27:30;;;;;;;9.20;0.40;;;1.00;99.90;;;;;;4972587;28;20900;-77
2024/01/15 04:29:56;;;;;;;5.67;0.60;;;1.00;99.90;;;;;;4956324;28;20050;-80
2024/01/15 04:32:23;;;;;;;3.17;0.40;;;1.00;99.90;;;;;;4989939;28;20686;-77
2024/01/15 04:34:50;;;;;;;6.70;0.70;;;1.00;99.90;;;;;;5006383;28;20053;-79
2024/01/15 04:37:16;;;;;;;8.97;1.17;;;1.00;99.90;;;;;;4973950;28;20042;-77
2024/01/15 04:39:43;;;;;;;7.93;0.63;;;0.90;99.90;;;;;;4971778;28;20084;-80
2024/01/15 04:42:09;;;;;;;7.80;0.80;;;0.90;99.90;;;;;;4971825;28;20034;-81
2024/01/15 04:44:35;;;;;;;4.30;0.40;;;0.80;99.90;;;;;;4957940;28;20038;-79
2024/01/15 04:47:02;;;;;;;10.20;0.70;;;0.80;99.90;;;;;;4971385;28;20053;-79
2024/01/15 04:49:29;;;;;;;8.07;0.73;;;0.80;99.90;;;;;;4971787;28;20038;-79
2024/01/15 04:51:56;;;;;;;7.27;0.60;;;0.70;99.90;;;;;;5005050;28;20058;-80
2024/01/15 04:54:22;;;;;;;5.03;0.50;;;0.70;99.90;;;;;;5005194;28;20041;-79
2024/01/15 04:56:48;;;;;;;7.90;0.90;;;0.60;99.90;;;;;;4955776;28;20039;-79
2024/01/15 04:59:15;;;;;;;9.03;0.83;;;0.60;99.90;;;;;;4971973;28;20038;-77
2024/01/15 05:01:41;;;;;;;11.57;0.90;;;0.60;99.90;;;;;;4956143;28;20035;-80
2024/01/15 05:04:08;;;;;;;10.13;0.70;;;0.50;99.90;;;;;;4954785;28;20026;-79
2024/01/15 05:06:34;;;;;;;9.37;1.33;;;0.50;99.90;;;;;;4972938;28;20378;-79
2024/01/15 05:09:00;;;;;;;3.53;0.60;;;0.60;99.90;;;;;;4987601;28;20026;-80
2024/01/15 05:11:27;;;;;;;9.50;0.60;;;0.60;99.90;;;;;;4986878;28;20035;-80
2024/01/15 05:13:53;;;;;;;5.57;0.70;;;0.60;99.90;;;;;;4973756;28;20043;-80
2024/01/15 05:16:20;;;;;;;10.57;0.70;;;0.50;99.90;;;;;;4972673;28;20038;-81
2024/01/15 05:18:46;;;;;;;8.93;1.00;;;0.50;99.90;;;;;;4972700;28;20026;-81
2024/01/15 05:21:12;;;;;;;13.27;1.30;;;0.50;99.90;;;;;;4989372;28;20050;-79
2024/01/15 05:23:39;;;;;;;10.23;1.20;;;0.50;99.90;;;;;;5008192;28;20462;-80
2024/01/15 05:26:05;;;;;;;8.23;1.03;;;0.50;99.90;;;;;;4973557;28;20050;-80
2024/01/15 05:28:32;;;;;;;11.43;0.93;;;0.50;99.90;;;;;;5005343;28;20030;-79
2024/01/15 05:30:58;;;;;;;6.60;0.63;;;0.60;99.90;;;;;;4987866;28;20039;-79
2024/01/15 05:33:25;;;;;;;6.53;0.90;;;0.60;99.90;;;;;;4972555;28;20045;-77
2024/01/15 05:35:51;;;;;;;8.43;1.07;;;0.70;99.90;;;;;;4953369;28;20378;-77
2024/01/15 05:38:18;;;;;;;9.77;0.87;;;0.80;99.90;;;;;;4955780;28;20058;-78
2024/01/15 05:40:44;;;;;;;9.20;0.70;;;0.80;99.90;;;;;;4987025;28;20481;-77
2024/01/15 05:43:10;;;;;;;9.93;0.70;;;0.80;99.90;;;;;;4954315;28;20382;-78
2024/01/15 05:45:38;;;;;;;8.50;0.73;;;0.90;99.90;;;;;;4975404;28;20034;-76
2024/01/15 05:48:05;;;;;;;15.27;0.87;;;0.90;99.90;;;;;;4972685;28;20041;-77
2024/01/15 05:50:31;;;;;;;9.03;1.00;;;0.90;99.90;;;;;;4955469;28;20049;-79
2024/01/15 05:52:57;;;;;;;9.53;1.00;;;0.90;99.90;;;;;;4971589;28;20022;-80
2024/01/15 05:55:24;;;;;;;6.10;0.93;;;1.00;99.90;;;;;;4954698;28;20054;-79
2024/01/15 05:57:50;;;;;;;10.73;1.07;;;1.00;99.90;;;;;;4959610;28;20034;-80
2024/01/15 06:00:17;;;;;;;8.93;1.13;;;1.00;99.90;;;;;;4957776;28;20030;-79
2024/01/15 06:02:43;;;;;;;6.60;1.30;;;1.00;99.90;;;;;;4974859;28;20057;-81
2024/01/15 06:05:09;;;;;;;10.40;1.60;;;1.00;99.90;;;;;;4957693;28;20030;-80
2024/01/15 06:07:36;;;;;;;5.67;0.97;;;1.00;99.90;;;;;;4958693;28;20046;-79
2024/01/15 06:10:04;;;;;;;5.50;1.00;;;1.00;99.90;;;;;;4990536;28;20054;-79
2024/01/15 06:12:32;;;;;;;6.27;1.07;;;1.10;99.90;;;;;;4973667;28;20038;-78
2024/01/15 06:14:58;;;;;;;5.40;1.30;;;1.10;99.90;;;;;;4954484;28;20038;-79
2024/01/15 06:17:24;;;;;;;8.37;2.07;;;1.20;99.90;;;;;;4975544;28;20030;-80
2024/01/15 06:19:51;;;;;;;5.37;1.70;;;1.20;99.90;;;;;;4958930;28;20053;-81
2024/01/15 06:22:18;;;;;;;7.97;1.50;;;1.20;99.90;;;;;;4976578;28;20029;-80
2024/01/15 06:24:44;;;;;;;7.13;1.70;;;1.30;99.90;;;;;;4990633;28;20038;-80
2024/01/15 06:27:11;;;;;;;8.30;1.27;;;1.30;99.90;;;;;;4974139;28;20061;-80
2024/01/15 06:29:39;;;;;;;9.13;1.83;;;1.30;99.90;;;;;;4958949;28;20535;-79
2024/01/15 06:32:05;;;;;;;7.73;2.07;;;1.30;99.90;;;;;;5001139;28;20053;-79
2024/01/15 06:34:31;;;;;;;8.03;1.83;;;1.30;99.90;;;;;;4983580;28;20034;-80
2024/01/15 06:36:58;;;;;;;8.00;1.90;;;1.40;99.90;;;;;;5004906;28;20042;-80
2024/01/15 06:39:24;;;;;;;6.57;2.03;;;1.40;99.90;;;;;;4974606;28;20059;-78
2024/01/15 06:41:51;;;;;;;11.67;2.57;;;1.40;99.90;;;;;;4974189;28;20029;-79
2024/01/15 06:44:18;;;;;;;7.83;1.40;;;1.40;99.90;;;;;;4972943;28;20495;-80
2024/01/15 06:46:44;;;;;;;6.63;2.10;;;1.40;99.90;;;;;;4973418;28;20041;-82
2024/01/15 06:49:11;;;;;;;4.23;1.63;;;1.40;99.90;;;;;;5005066;28;20041;-81
2024/01/15 06:51:37;;;;;;;8.80;2.10;;;1.40;99.90;;;;;;4957831;28;20042;-76
2024/01/15 06:54:04;;;;;;;7.73;2.07;;;1.40;99.90;;;;;;4956586;28;20050;-80
2024/01/15 06:56:31;;;;;;;5.03;1.27;;;1.30;99.90;;;;;;4987656;28;20042;-78
2024/01/15 06:58:58;;;;;;;7.13;1.80;;;1.30;99.90;;;;;;4973539;28;20053;-79
2024/01/15 07:01:25;;;;;;;5.90;1.63;;;1.30;99.90;;;;;;4973861;28;20045;-79
2024/01/15 07:03:51;;;;;;;3.67;1.83;;;1.30;99.90;;;;;;4989340;28;20492;-80
2024/01/15 07:06:18;;;;;;;6.00;1.93;;;1.30;99.90;;;;;;4987331;28;20030;-79
2024/01/15 07:08:45;;;;;;;3.27;1.20;;;1.30;99.90;;;;;;4973155;28;20037;-78
2024/01/15 07:11:12;;;;;;;5.97;1.30;;;1.30;99.90;;;;;;4974741;28;20045;-78
2024/01/15 07:13:38;;;;;;;4.07;1.90;;;1.30;99.90;;;;;;4974799;28;20034;-78
2024/01/15 07:16:05;;;;;;;5.93;1.53;;;1.30;99.90;;;;;;4973986;28;20033;-78
2024/01/15 07:18:31;;;;;;;4.93;1.90;;;1.40;99.90;;;;;;4991630;28;20037;-80
2024/01/15 07:20:58;;;;;;;3.97;2.23;;;1.40;99.90;;;;;;4974867;28;20030;-77
2024/01/15 07:23:24;;;;;;;3.20;1.77;;;1.40;99.90;;;;;;4976315;28;20065;-80
2024/01/15 07:25:51;;;;;;;4.40;2.87;;;1.40;99.90;;;;;;4977786;28;20179;-83
2024/01/15 07:28:17;;;;;;;7.63;4.27;;;1.40;99.90;;;;;;4991351;28;20114;-80
2024/01/15 07:30:44;;;;;;;7.13;4.50;;;1.40;99.90;;;;;;4942544;28;20057;-79
2024/01/15 07:33:11;;;;;;;10.77;6.90;;;1.40;99.90;;;;;;4955036;28;20478;-81
2024/01/15 07:35:38;;;;;;;9.77;6.17;;;1.40;99.90;;;;;;4973933;28;20030;-80
2024/01/15 07:38:04;;;;;;;9.80;6.70;;;1.40;99.90;;;;;;4990463;28;20305;-80
2024/01/15 07:40:30;;;;;;;14.07;9.80;;;1.40;99.90;;;;;;4956180;28;20387;-78
2024/01/15 07:42:57;;;;;;;16.57;10.50;;;1.40;99.90;;;;;;5006171;28;20022;-80
2024/01/15 07:45:24;;;;;;;15.60;10.63;;;1.40;99.90;;;;;;4973032;28;20034;-81
2024/01/15 07:47:50;;;;;;;13.03;8.93;;;1.40;99.90;;;;;;4957472;28;20049;-79
2024/01/15 07:50:17;;;;;;;16.70;10.27;;;1.40;99.90;;;;;;4971667;28;20049;-80
2024/01/15 07:52:43;;;;;;;16.93;10.67;;;1.40;99.90;;;;;;4972828;28;20482;-80
2024/01/15 07:55:10;;;;;;;12.20;8.03;;;1.40;99.90;;;;;;4972768;28;20528;-78
2024/01/15 07:57:37;;;;;;;15.43;10.47;;;1.40;99.90;;;;;;4939589;28;20401;-80
2024/01/15 08:00:05;;;;;;;16.30;9.23;;;1.40;99.90;;;;;;4972072;28;20042;-79
2024/01/15 08:02:32;;;;;;;12.53;8.83;;;1.40;99.90;;;;;;4954761;28;20580;-81
2024/01/15 08:04:58;;;;;;;15.67;10.40;;;1.40;99.90;;;;;;4973395;28;20588;-78
2024/01/15 08:07:26;;;;;;;16.93;10.27;;;1.40;99.90;;;;;;4989217;28;20560;-78
2024/01/15 08:09:52;;;;;;;16.07;9.80;;;1.40;99.90;;;;;;4970379;28;20560;-82
2024/01/15 08:12:19;;;;;;;11.60;8.97;;;1.40;99.90;;;;;;4973594;28;20030;-80
2024/01/15 08:14:45;;;;;;;12.03;8.00;;;1.40;99.90;;;;;;4966685;28;20034;-81
2024/01/15 08:17:12;;;;;;;12.73;8.47;;;1.40;99.90;;;;;;4952021;28;20081;-78
2024/01/15 08:19:40;;;;;;;12.50;7.67;;;1.50;99.90;;;;;;4979138;28;20050;-83
2024/01/15 08:22:07;;;;;;;11.73;7.60;;;1.40;99.90;;;;;;4967610;28;20045;-79
2024/01/15 08:24:33;;;;;;;9.37;6.70;;;1.50;99.90;;;;;;4956534;28;20030;-79
2024/01/15 08:27:00;;;;;;;8.63;5.13;;;1.50;99.90;;;;;;4970515;28;20058;-81
2024/01/15 08:29:26;;;;;;;8.63;5.67;;;1.50;99.90;;;;;;4971584;28;20434;-82
2024/01/15 08:31:53;;;;;;;7.07;5.10;;;1.50;99.90;;;;;;5006514;28;20057;-82
2024/01/15 08:34:20;;;;;;;7.50;5.20;;;1.50;99.90;;;;;;4970629;28;20027;-78
2024/01/15 08:36:46;;;;;;;7.43;4.90;;;1.50;99.90;;;;;;4974640;28;20441;-82
2024/01/15 08:39:13;;;;;;;9.37;5.30;;;1.50;99.90;;;;;;4973165;28;20038;-79
2024/01/15 08:41:39;;;;;;;8.37;5.30;;;1.50;99.90;;;;;;4955647;28;20046;-81
2024/01/15 08:44:05;;;;;;;11.07;6.10;;;1.50;99.90;;;;;;4988396;28;20496;-79
2024/01/15 08:46:32;;;;;;;9.27;5.40;;;1.50;99.90;;;;;;4972661;28;20049;-78
2024/01/15 08:48:58;;;;;;;8.73;5.50;;;1.50;99.90;;;;;;4998827;28;20303;-81
2024/01/15 08:51:25;;;;;;;7.87;4.80;;;1.50;99.90;;;;;;4973643;28;20034;-81
2024/01/15 08:53:52;;;;;;;8.63;5.20;;;1.50;99.90;;;;;;4972194;28;20035;-82
2024/01/15 08:56:18;;;;;;;9.93;4.60;;;1.40;99.90;;;;;;4989238;28;20084;-78
2024/01/15 08:58:46;;;;;;;7.50;4.20;;;1.50;99.90;;;;;;4955383;28;20580;-81
2024/01/15 09:01:12;;;;;;;9.37;4.60;;;1.50;99.90;;;;;;4954296;28;20054;-81
2024/01/15 09:03:41;;;;;;;9.83;4.63;;;1.50;99.90;;;;;;4972198;28;20042;-78
2024/01/15 09:06:09;;;;;;;8.10;4.90;;;1.50;99.90;;;;;;5004832;28;20419;-80
2024/01/15 09:08:36;;;;;;;8.77;4.17;;;1.50;99.90;;;;;;4975166;28;20042;-82
2024/01/15 09:11:03;;;;;;;4.87;2.27;;;1.50;99.90;;;;;;4956349;28;21346;-84
2024/01/15 09:13:30;;;;;;;5.00;2.60;;;1.50;99.90;;;;;;4988528;28;20576;-83
2024/01/15 09:15:58;;;;;;;4.67;2.20;;;1.50;99.90;;;;;;4973550;28;20393;-83
2024/01/15 09:18:24;;;;;;;3.63;1.60;;;1.50;99.90;;;;;;5000990;28;20657;-81
2024/01/15 09:20:50;;;;;;;4.90;2.63;;;1.50;99.90;;;;;;4976974;28;20038;-82
2024/01/15 09:23:17;;;;;;;6.07;3.57;;;1.50;99.90;;;;;;4992327;28;20394;-81
2024/01/15 09:25:43;;;;;;;4.70;3.07;;;1.50;99.90;;;;;;4975577;28;20034;-81
2024/01/15 09:28:10;;;;;;;9.20;3.53;;;1.50;99.90;;;;;;4958730;28;20540;-78
2024/01/15 09:30:36;;;;;;;6.50;3.53;;;1.60;99.90;;;;;;4993014;28;20050;-83
2024/01/15 09:33:03;;;;;;;9.80;3.77;;;1.60;99.90;;;;;;4959848;28;20482;-82
2024/01/15 09:35:29;;;;;;;9.47;5.03;;;1.70;99.90;;;;;;4993664;28;20505;-80
2024/01/15 09:37:56;;;;;;;9.97;4.43;;;1.80;99.90;;;;;;4976882;28;20465;-80
2024/01/15 09:40:24;;;;;;;10.43;6.00;;;1.80;99.90;;;;;;5010581;28;21713;-80
2024/01/15 09:42:52;;;;;;;19.73;8.30;;;1.90;99.90;;;;;;4989307;28;20038;-82
2024/01/15 09:45:18;;;;;;;12.40;5.83;;;1.90;99.90;;;;;;4994056;28;20037;-81
2024/01/15 09:47:45;;;;;;;13.13;6.07;;;2.00;99.90;;;;;;4977847;28;20046;-83
2024/01/15 09:50:12;;;;;;;12.43;6.57;;;2.00;99.90;;;;;;4995312;28;20054;-84
2024/01/15 09:52:40;;;;;;;12.60;6.13;;;2.10;99.90;;;;;;4988156;28;20043;-79
2024/01/15 09:55:09;;;;;;;14.23;6.67;;;2.10;99.90;;;;;;4992352;28;20501;-83
2024/01/15 09:57:37;;;;;;;10.77;5.43;;;2.30;99.90;;;;;;4977501;28;20364;-81
2024/01/15 10:00:06;;;;;;;12.88;5.38;;;2.30;99.90;;;;;;4993041;28;20045;-82
2024/01/15 10:02:33;;;;;;;9.82;4.80;;;2.30;99.90;;;;;;4960547;28;20917;-83
2024/01/15 10:04:59;;;;;;;8.73;4.63;;;2.30;99.90;;;;;;4977976;28;20035;-82
2024/01/15 10:07:28;;;;;;;8.07;3.75;;;2.20;99.90;;;;;;4976537;28;20049;-85
2024/01/15 10:09:55;;;;;;;7.15;2.95;;;2.00;99.90;;;;;;4976306;28;20038;-85
2024/01/15 10:12:27;;;;;;;8.83;2.83;;;1.90;99.90;;;;;;5008603;28;20045;-82
2024/01/15 10:14:53;;;;;;;8.73;3.28;;;1.80;99.90;;;;;;4992461;28;20405;-86
2024/01/15 10:17:19;;;;;;;4.50;1.70;;;1.80;99.90;;;;;;4976549;28;20045;-85
2024/01/15 10:19:47;;;;;;;3.53;0.90;;;2.10;99.90;;;;;;4990875;28;20030;-81
2024/01/15 10:22:15;;;;;;;5.38;1.23;;;2.50;99.90;;;;;;4991605;28;20034;-81
2024/01/15 10:24:41;;;;;;;4.18;0.82;;;2.80;99.90;;;;;;4976461;28;20644;-80
2024/01/15 10:27:09;;;;;;;1.50;0.60;;;3.00;99.90;;;;;;4972578;28;20034;-83
2024/01/15 10:29:36;;;;;;;3.00;0.65;;;3.30;99.90;;;;;;4958262;28;20034;-84
2024/01/15 10:32:06;;;;;;;3.70;0.45;;;3.30;99.90;;;;;;4992452;28;20038;-85
2024/01/15 10:34:32;;;;;;;1.85;0.50;;;3.20;99.90;;;;;;4953966;28;20065;-86
2024/01/15 10:37:02;;;;;;;2.17;0.90;;;3.00;99.90;;;;;;5008948;28;20043;-81
2024/01/15 10:39:30;;;;;;;4.55;0.80;;;2.90;99.90;;;;;;4975092;28;20038;-82
2024/01/15 10:41:56;;;;;;;3.95;0.80;;;2.80;99.90;;;;;;4960434;28;20033;-86
2024/01/15 10:44:23;;;;;;;6.38;0.90;;;2.60;99.90;;;;;;4991609;28;20038;-86
2024/01/15 10:46:49;;;;;;;5.50;0.60;;;2.50;99.90;;;;;;4959842;28;20492;-81
2024/01/15 10:49:16;;;;;;;4.07;1.07;;;2.50;99.90;;;;;;5008354;28;20489;-83
2024/01/15 10:51:43;;;;;;;7.88;0.82;;;2.50;99.90;;;;;;4957899;28;20512;-82
2024/01/15 10:54:13;;;;;;;3.85;1.00;;;2.50;99.90;;;;;;4975799;28;20042;-85
2024/01/15 10:56:41;;;;;;;4.18;1.20;;;2.60;99.90;;;;;;4991191;28;20045;-82
2024/01/15 10:59:10;;;;;;;6.25;0.93;;;2.70;99.90;;;;;;4957017;28;20045;-85
2024/01/15 11:01:37;;;;;;;6.82;1.83;;;2.90;99.90;;;;;;5005978;28;20038;-82
2024/01/15 11:04:04;;;;;;;5.30;1.52;;;3.10;99.90;;;;;;4960178;28;20164;-84
2024/01/15 11:06:46;;;;;;;5.53;1.43;;;3.10;99.90;;;;;;4974635;28;20038;-83
2024/01/15 11:09:15;;;;;;;6.97;1.30;;;3.00;99.90;;;;;;4958673;28;20050;-84
2024/01/15 11:11:46;;;;;;;5.95;1.50;;;2.90;99.90;;;;;;4990827;28;20053;-84
2024/01/15 11:14:43;;;;;;;4.35;1.27;;;2.80;99.90;;;;;;4991275;28;20508;-85
2024/01/15 11:17:10;;;;;;;7.78;1.25;;;2.60;99.90;;;;;;4961989;28;20042;-83
2024/01/15 11:19:43;;;;;;;8.20;1.55;;;2.40;99.90;;;;;;4982541;28;20038;-82
2024/01/15 11:22:30;;;;;;;7.40;1.45;;;2.30;99.90;;;;;;4976523;28;20034;-83
2024/01/15 11:25:01;;;;;;;7.18;1.30;;;2.30;99.90;;;;;;4971212;28;20034;-83
2024/01/15 11:27:51;;;;;;;8.68;1.75;;;2.50;99.90;;;;;;5008248;28;20056;-79
2024/01/15 11:30:19;;;;;;;8.57;1.55;;;2.60;99.90;;;;;;5007018;28;20045;-82
2024/01/15 11:32:46;;;;;;;6.50;1.57;;;2.60;99.90;;;;;;4971040;28;20045;-83
2024/01/15 11:35:14;;;;;;;10.68;2.00;;;2.60;99.90;;;;;;4974400;28;20073;-81
2024/01/15 11:37:57;;;;;;;5.97;1.38;;;2.70;99.90;;;;;;4972877;28;20046;-83
2024/01/15 11:40:37;;;;;;;6.15;1.38;;;2.80;99.90;;;;;;4958029;28;20449;-80
2024/01/15 11:43:05;;;;;;;6.67;1.70;;;2.70;99.90;;;;;;4976066;28;20053;-80
2024/01/15 11:45:33;;;;;;;8.23;1.70;;;2.80;99.90;;;;;;4973450;28;20370;-80
2024/01/15 11:48:15;;;;;;;10.70;1.95;;;2.90;99.90;;;;;;4974093;28;20033;-81
2024/01/15 11:50:49;;;;;;;6.13;1.23;;;2.90;99.90;;;;;;4989302;28;20054;-81
2024/01/15 11:53:32;;;;;;;6.85;1.30;;;2.90;99.90;;;;;;4972824;28;20030;-81
2024/01/15 11:56:01;;;;;;;9.95;1.70;;;2.90;99.90;;;;;;4984883;28;20061;-80
2024/01/15 11:58:27;;;;;;;7.53;1.23;;;2.80;99.90;;;;;;5005727;28;20026;-80
2024/01/15 12:00:54;;;;;;;8.35;2.28;;;2.80;99.90;;;;;;4939419;28;20041;-82
2024/01/15 12:03:22;;;;;;;6.00;1.20;;;2.70;99.90;;;;;;4957271;28;20370;-82
2024/01/15 12:05:49;;;;;;;8.43;1.33;;;2.60;99.90;;;;;;4973730;28;20042;-82
2024/01/15 12:08:23;;;;;;;10.90;1.40;;;2.50;99.90;;;;;;4974437;28;20034;-83
2024/01/15 12:10:51;;;;;;;9.18;1.20;;;2.50;99.90;;;;;;4988810;28;20478;-82
2024/01/15 12:13:17;;;;;;;8.15;1.75;;;2.50;99.90;;;;;;4975153;28;20026;-83
2024/01/15 12:15:45;;;;;;;6.55;1.45;;;2.50;99.90;;;;;;4941316;28;20393;-83
2024/01/15 12:18:19;;;;;;;11.23;1.98;;;2.50;99.90;;;;;;4969235;28;20262;-82
2024/01/15 12:20:48;;;;;;;4.63;1.25;;;2.50;99.90;;;;;;4972963;28;20037;-83
2024/01/15 12:23:16;;;;;;;6.13;1.00;;;2.50;99.90;;;;;;5005989;28;20039;-83
2024/01/15 12:25:43;;;;;;;6.78;1.00;;;2.60;99.90;;;;;;4957098;28;20049;-81
2024/01/15 12:28:10;;;;;;;8.40;1.30;;;2.80;99.90;;;;;;4989668;28;20460;-80
2024/01/15 12:30:37;;;;;;;7.10;1.00;;;2.90;99.90;;;;;;4955165;28;20042;-83
2024/01/15 12:33:05;;;;;;;11.07;1.25;;;3.10;99.90;;;;;;5005881;28;20042;-82
2024/01/15 12:35:31;;;;;;;5.47;0.98;;;3.20;99.90;;;;;;4968732;28;20038;-81
2024/01/15 12:38:02;;;;;;;7.22;0.90;;;3.10;99.90;;;;;;4956868;28;20466;-83
2024/01/15 12:40:28;;;;;;;6.60;0.77;;;3.00;99.90;;;;;;4985340;28;20042;-84
2024/01/15 12:42:55;;;;;;;3.30;0.70;;;2.90;99.90;;;;;;4990506;28;20030;-84
2024/01/15 12:45:22;;;;;;;5.30;0.80;;;2.80;99.90;;;;;;4989501;28;20030;-83
2024/01/15 12:47:50;;;;;;;3.70;0.65;;;2.60;99.90;;;;;;4956651;28;20050;-80
2024/01/15 12:50:16;;;;;;;4.75;0.55;;;2.50;99.90;;;;;;4989642;28;20046;-85
2024/01/15 12:52:43;;;;;;;6.85;1.20;;;2.50;99.90;;;;;;4989877;28;20041;-81
2024/01/15 12:55:17;;;;;;;4.75;0.70;;;2.40;99.90;;;;;;4957015;28;20520;-83